createdAt,value
2023-08-30T00:01:42.247Z,81.79
2023-08-30T00:04:09.412Z,82.11
2023-08-30T00:06:36.492Z,82.31
2023-08-30T00:09:03.747Z,81.98
2023-08-30T00:11:31.480Z,82.07
2023-08-30T00:14:09.080Z,81.36
2023-08-30T00:16:37.519Z,81.27
2023-08-30T00:19:05.146Z,81.53
2023-08-30T00:21:32.388Z,82.80
2023-08-30T00:23:59.506Z,82.91
2023-08-30T00:26:26.602Z,82.79
2023-08-30T00:28:55.377Z,82.70
2023-08-30T00:31:23.261Z,83.09
2023-08-30T00:33:50.640Z,83.35
2023-08-30T00:36:19.491Z,83.88
2023-08-30T00:38:47.461Z,84.17
2023-08-30T00:41:14.578Z,83.90
2023-08-30T00:43:43.032Z,84.29
2023-08-30T00:46:13.063Z,84.74
2023-08-30T00:48:40.564Z,84.99
2023-08-30T00:51:10.359Z,85.22
2023-08-30T00:53:37.523Z,85.24
2023-08-30T00:56:04.685Z,85.12
2023-08-30T00:58:32.120Z,84.70
2023-08-30T01:01:00.855Z,85.67
2023-08-30T01:03:27.996Z,85.63
2023-08-30T01:05:56.300Z,84.85
2023-08-30T01:08:23.442Z,84.85
2023-08-30T01:11:21.735Z,84.51
2023-08-30T01:13:57.273Z,84.02
2023-08-30T01:16:26.052Z,83.45
2023-08-30T01:18:57.710Z,84.51
2023-08-30T01:21:31.263Z,83.97
2023-08-30T01:24:03.543Z,83.06
2023-08-30T01:26:52.044Z,83.79
2023-08-30T01:29:22.159Z,84.36
2023-08-30T01:31:50.151Z,85.21
2023-08-30T01:34:18.083Z,85.16
2023-08-30T01:36:45.615Z,85.00
2023-08-30T01:39:15.435Z,85.44
2023-08-30T01:41:42.927Z,85.22
2023-08-30T01:44:11.630Z,84.99
2023-08-30T01:46:40.185Z,85.22
2023-08-30T01:49:08.673Z,85.21
2023-08-30T01:51:38.120Z,85.17
2023-08-30T01:54:05.668Z,85.15
2023-08-30T01:56:34.788Z,85.19
2023-08-30T01:59:02.005Z,84.99
2023-08-30T02:01:29.240Z,85.11
2023-08-30T02:03:56.264Z,85.66
2023-08-30T02:07:03.238Z,85.73
2023-08-30T02:09:43.876Z,85.67
2023-08-30T02:12:16.436Z,85.96
2023-08-30T02:14:48.421Z,85.40
2023-08-30T02:17:16.446Z,85.60
2023-08-30T02:19:47.257Z,85.75
2023-08-30T02:22:19.248Z,85.59
2023-08-30T02:24:46.307Z,85.78
2023-08-30T02:27:13.373Z,86.08
2023-08-30T02:29:41.392Z,85.99
2023-08-30T02:32:08.592Z,85.77
2023-08-30T02:34:36.997Z,85.19
2023-08-30T02:37:04.149Z,85.77
2023-08-30T02:39:31.281Z,86.35
2023-08-30T02:41:58.392Z,86.27
2023-08-30T02:44:25.463Z,86.38
2023-08-30T02:46:52.488Z,86.83
2023-08-30T02:49:19.495Z,86.78
2023-08-30T02:51:46.556Z,86.26
2023-08-30T02:54:14.593Z,86.71
2023-08-30T02:56:44.462Z,87.08
2023-08-30T02:59:12.768Z,87.37
2023-08-30T03:01:40.215Z,87.83
2023-08-30T03:04:09.101Z,86.25
2023-08-30T03:06:36.817Z,85.38
2023-08-30T03:09:04.332Z,85.63
2023-08-30T03:11:34.789Z,85.30
2023-08-30T03:14:02.694Z,84.71
2023-08-30T03:16:30.333Z,84.79
2023-08-30T03:18:59.354Z,85.13
2023-08-30T03:21:26.612Z,84.35
2023-08-30T03:23:53.734Z,84.45
2023-08-30T03:26:24.077Z,84.38
2023-08-30T03:28:51.201Z,84.13
2023-08-30T03:31:20.765Z,84.55
2023-08-30T03:33:51.103Z,84.49
2023-08-30T03:36:19.664Z,84.20
2023-08-30T03:38:47.072Z,84.05
2023-08-30T03:41:14.757Z,84.60
2023-08-30T03:43:44.153Z,84.30
2023-08-30T03:46:13.263Z,84.28
2023-08-30T03:48:40.899Z,83.37
2023-08-30T03:51:08.122Z,83.54
2023-08-30T03:53:35.360Z,83.76
2023-08-30T03:56:02.694Z,83.63
2023-08-30T03:58:29.929Z,83.84
2023-08-30T04:00:58.328Z,84.63
2023-08-30T04:03:25.958Z,85.19
2023-08-30T04:05:58.178Z,85.79
2023-08-30T04:08:25.714Z,86.26
2023-08-30T04:10:54.776Z,86.31
2023-08-30T04:13:22.166Z,86.95
2023-08-30T04:15:49.316Z,86.84
2023-08-30T04:18:16.658Z,87.03
2023-08-30T04:20:48.722Z,86.80
2023-08-30T04:23:16.013Z,86.53
2023-08-30T04:25:46.078Z,86.46
2023-08-30T04:28:13.443Z,86.20
2023-08-30T04:30:40.845Z,86.11
2023-08-30T04:33:09.329Z,86.39
2023-08-30T04:35:36.616Z,86.11
2023-08-30T04:38:04.486Z,85.31
2023-08-30T04:40:33.295Z,85.72
2023-08-30T04:43:01.377Z,85.55
2023-08-30T04:45:29.399Z,85.65
2023-08-30T04:47:57.094Z,85.36
2023-08-30T04:50:25.362Z,85.75
2023-08-30T04:52:52.814Z,85.25
2023-08-30T04:55:19.916Z,85.09
2023-08-30T04:57:48.719Z,85.99
2023-08-30T05:00:18.667Z,86.21
2023-08-30T05:02:47.728Z,86.90
2023-08-30T05:05:15.903Z,86.80
2023-08-30T05:07:43.557Z,86.62
2023-08-30T05:10:10.920Z,86.97
2023-08-30T05:12:38.580Z,86.26
2023-08-30T05:15:06.841Z,86.67
2023-08-30T05:17:34.405Z,86.52
2023-08-30T05:20:04.167Z,86.02
2023-08-30T05:22:32.180Z,86.54
2023-08-30T05:24:59.492Z,86.98
2023-08-30T05:27:26.694Z,86.31
2023-08-30T05:29:54.652Z,86.99
2023-08-30T05:32:22.009Z,87.43
2023-08-30T05:35:07.901Z,88.12
2023-08-30T05:37:53.775Z,88.67
2023-08-30T05:40:43.699Z,88.12
2023-08-30T05:43:10.947Z,87.55
2023-08-30T05:45:38.394Z,88.14
2023-08-30T05:48:06.689Z,87.78
2023-08-30T05:50:34.036Z,87.46
2023-08-30T05:53:01.146Z,87.65
2023-08-30T05:55:28.225Z,88.00
2023-08-30T05:57:55.400Z,88.13
2023-08-30T06:00:23.409Z,87.88
2023-08-30T06:02:52.529Z,87.26
2023-08-30T06:05:19.683Z,86.77
2023-08-30T06:07:46.852Z,86.59
2023-08-30T06:10:14.198Z,85.83
2023-08-30T06:12:41.230Z,85.48
2023-08-30T06:15:08.818Z,82.44
2023-08-30T06:17:36.124Z,83.18
2023-08-30T06:20:04.178Z,83.12
2023-08-30T06:22:31.874Z,82.89
2023-08-30T06:24:58.871Z,82.73
2023-08-30T06:27:26.026Z,82.75
2023-08-30T06:29:53.228Z,82.88
2023-08-30T06:32:20.302Z,83.14
2023-08-30T06:34:47.472Z,82.69
2023-08-30T06:37:14.449Z,81.90
2023-08-30T06:39:41.601Z,81.85
2023-08-30T06:42:08.989Z,81.06
2023-08-30T06:44:36.341Z,80.08
2023-08-30T06:47:03.790Z,79.69
2023-08-30T06:49:33.048Z,79.66
2023-08-30T06:52:02.926Z,80.01
2023-08-30T06:54:31.507Z,79.72
2023-08-30T06:57:00.421Z,79.67
2023-08-30T06:59:28.557Z,79.07
2023-08-30T07:01:56.042Z,78.64
2023-08-30T07:04:23.324Z,78.75
2023-08-30T07:06:50.623Z,79.52
2023-08-30T07:09:18.013Z,78.44
2023-08-30T07:11:46.148Z,79.22
2023-08-30T07:14:15.120Z,77.53
2023-08-30T07:16:42.705Z,78.12
2023-08-30T07:19:11.073Z,73.07
2023-08-30T07:21:39.893Z,75.13
2023-08-30T07:24:08.485Z,75.88
2023-08-30T07:26:37.048Z,75.38
2023-08-30T07:29:07.699Z,74.24
2023-08-30T07:31:34.871Z,75.03
2023-08-30T07:34:02.222Z,73.83
2023-08-30T07:36:44.829Z,73.55
2023-08-30T07:39:14.598Z,73.28
2023-08-30T07:41:41.812Z,74.59
2023-08-30T07:44:08.851Z,74.07
2023-08-30T07:46:35.929Z,72.90
2023-08-30T07:49:03.880Z,72.84
2023-08-30T07:51:31.177Z,73.18
2023-08-30T07:53:58.327Z,73.76
2023-08-30T07:56:28.263Z,74.99
2023-08-30T07:58:55.588Z,75.07
2023-08-30T08:01:22.850Z,74.06
2023-08-30T08:04:04.220Z,73.65
2023-08-30T08:06:34.959Z,75.49
2023-08-30T08:09:02.956Z,76.18
2023-08-30T08:11:30.513Z,75.88
2023-08-30T08:13:57.865Z,75.75
2023-08-30T08:16:25.124Z,76.76
2023-08-30T08:18:53.273Z,75.70
2023-08-30T08:21:20.423Z,75.29
2023-08-30T08:23:50.859Z,76.05
2023-08-30T08:26:18.373Z,76.17
2023-08-30T08:28:45.644Z,75.58
2023-08-30T08:31:12.933Z,76.52
2023-08-30T08:33:40.033Z,76.35
2023-08-30T08:36:07.128Z,76.35
2023-08-30T08:38:35.240Z,75.97
2023-08-30T08:41:05.865Z,75.43
2023-08-30T08:43:33.867Z,75.80
2023-08-30T08:46:01.943Z,76.36
2023-08-30T08:48:32.595Z,76.18
2023-08-30T08:51:01.473Z,75.97
2023-08-30T08:53:28.988Z,76.02
2023-08-30T08:55:59.409Z,76.58
2023-08-30T08:58:27.291Z,76.67
2023-08-30T09:00:55.440Z,75.48
2023-08-30T09:03:23.447Z,74.89
2023-08-30T09:05:52.268Z,75.20
2023-08-30T09:08:19.409Z,74.45
2023-08-30T09:10:48.589Z,74.01
2023-08-30T09:13:15.851Z,73.36
2023-08-30T09:15:43.029Z,73.16
2023-08-30T09:18:18.115Z,73.39
2023-08-30T09:20:46.112Z,73.38
2023-08-30T09:23:23.138Z,74.51
2023-08-30T09:25:58.253Z,73.96
2023-08-30T09:28:25.515Z,74.43
2023-08-30T09:30:53.930Z,74.01
2023-08-30T09:33:30.532Z,73.55
2023-08-30T09:35:57.728Z,74.84
2023-08-30T09:38:25.032Z,75.02
2023-08-30T09:40:53.137Z,75.02
2023-08-30T09:43:23.176Z,74.85
2023-08-30T09:45:51.848Z,74.35
2023-08-30T09:48:23.403Z,75.12
2023-08-30T09:50:55.393Z,74.00
2023-08-30T09:53:27.645Z,75.05
2023-08-30T09:55:55.385Z,75.95
2023-08-30T09:58:22.856Z,76.39
2023-08-30T10:00:50.191Z,77.66
2023-08-30T10:03:30.684Z,77.79
2023-08-30T10:06:00.317Z,77.46
2023-08-30T10:08:32.171Z,77.21
2023-08-30T10:11:00.122Z,77.28
2023-08-30T10:13:28.171Z,76.96
2023-08-30T10:16:04.836Z,75.20
2023-08-30T10:18:36.021Z,74.56
2023-08-30T10:21:08.140Z,74.21
2023-08-30T10:23:37.834Z,73.63
2023-08-30T10:26:07.671Z,71.00
2023-08-30T10:28:36.172Z,71.89
2023-08-30T10:31:04.458Z,68.97
2023-08-30T10:33:31.884Z,70.34
2023-08-30T10:36:08.456Z,69.78
2023-08-30T10:38:39.433Z,70.09
2023-08-30T10:41:10.635Z,68.71
2023-08-30T10:43:38.994Z,68.20
2023-08-30T10:46:08.288Z,66.95
2023-08-30T10:48:39.760Z,67.26
2023-08-30T10:51:45.946Z,66.19
2023-08-30T10:54:15.072Z,66.18
2023-08-30T10:57:02.684Z,63.82
2023-08-30T10:59:30.806Z,64.93
2023-08-30T11:02:02.735Z,62.86
2023-08-30T11:04:29.756Z,63.10
2023-08-30T11:06:57.868Z,63.24
2023-08-30T11:09:25.837Z,63.22
2023-08-30T11:11:53.062Z,63.61
2023-08-30T11:14:20.303Z,63.14
2023-08-30T11:16:48.038Z,63.33
2023-08-30T11:19:15.331Z,62.33
2023-08-30T11:21:46.126Z,61.48
2023-08-30T11:24:13.715Z,60.77
2023-08-30T11:26:41.089Z,59.63
2023-08-30T11:29:09.201Z,61.17
2023-08-30T11:31:37.496Z,61.58
2023-08-30T11:34:07.045Z,60.32
2023-08-30T11:36:37.510Z,60.54
2023-08-30T11:39:05.073Z,57.50
2023-08-30T11:41:33.222Z,60.26
2023-08-30T11:44:00.850Z,57.42
2023-08-30T11:46:28.087Z,54.92
2023-08-30T11:48:56.143Z,55.66
2023-08-30T11:51:23.719Z,55.05
2023-08-30T11:53:51.427Z,55.60
2023-08-30T11:56:20.456Z,56.84
2023-08-30T11:58:48.190Z,58.03
2023-08-30T12:01:15.806Z,58.85
2023-08-30T12:03:43.299Z,60.53
2023-08-30T12:06:13.108Z,61.73
2023-08-30T12:08:40.800Z,62.35
2023-08-30T12:11:22.089Z,63.90
2023-08-30T12:13:49.622Z,64.14
2023-08-30T12:16:18.793Z,64.04
2023-08-30T12:18:46.340Z,64.87
2023-08-30T12:21:15.773Z,65.00
2023-08-30T12:23:43.354Z,64.53
2023-08-30T12:26:12.065Z,64.40
2023-08-30T12:28:45.912Z,65.74
2023-08-30T12:31:13.487Z,66.31
2023-08-30T12:33:42.316Z,65.72
2023-08-30T12:36:09.726Z,67.12
2023-08-30T12:38:37.065Z,69.37
2023-08-30T12:41:04.406Z,70.70
2023-08-30T12:43:34.482Z,71.58
2023-08-30T12:46:02.200Z,72.08
2023-08-30T12:48:29.510Z,69.62
2023-08-30T12:50:57.411Z,66.68
2023-08-30T12:53:24.658Z,67.88
2023-08-30T12:55:52.678Z,69.40
2023-08-30T12:58:20.261Z,68.93
2023-08-30T13:00:47.686Z,68.95
2023-08-30T13:03:15.618Z,69.99
2023-08-30T13:05:43.190Z,69.71
2023-08-30T13:08:10.358Z,71.83
2023-08-30T13:10:37.542Z,73.42
2023-08-30T13:13:05.121Z,73.81
2023-08-30T13:15:32.624Z,73.22
2023-08-30T13:17:59.658Z,72.22
2023-08-30T13:20:27.274Z,73.98
2023-08-30T13:22:54.547Z,77.42
2023-08-30T13:25:21.740Z,79.07
2023-08-30T13:27:48.936Z,80.85
2023-08-30T13:30:17.434Z,80.52
2023-08-30T13:32:44.833Z,81.56
2023-08-30T13:35:12.560Z,82.84
2023-08-30T13:37:39.679Z,83.16
2023-08-30T13:40:07.342Z,84.03
2023-08-30T13:45:04.536Z,88.65
2023-08-30T13:47:32.232Z,92.00
2023-08-30T13:50:01.614Z,93.55
2023-08-30T13:52:31.673Z,95.72
2023-08-30T13:54:59.865Z,93.37
2023-08-30T13:57:27.011Z,95.78
2023-08-30T13:59:54.171Z,96.47
2023-08-30T14:02:21.610Z,96.08
2023-08-30T14:04:50.552Z,93.13
2023-08-30T14:07:18.138Z,94.11
2023-08-30T14:09:45.820Z,94.73
2023-08-30T14:12:12.931Z,94.69
2023-08-30T14:14:40.310Z,96.98
2023-08-30T14:17:07.741Z,92.34
2023-08-30T14:19:36.509Z,94.99
2023-08-30T14:22:05.148Z,94.70
2023-08-30T14:24:38.293Z,93.66
2023-08-30T14:27:09.970Z,94.51
2023-08-30T14:29:37.016Z,94.26
2023-08-30T14:32:04.568Z,94.43
2023-08-30T14:34:31.880Z,94.18
2023-08-30T14:36:59.047Z,94.09
2023-08-30T14:39:26.260Z,95.12
2023-08-30T14:41:53.327Z,95.72
2023-08-30T14:44:21.323Z,94.45
2023-08-30T14:46:48.528Z,96.37
2023-08-30T14:49:15.661Z,96.87
2023-08-30T14:51:42.788Z,96.59
2023-08-30T14:54:09.980Z,98.81
2023-08-30T14:56:37.263Z,99.21
2023-08-30T14:59:04.243Z,99.90
2023-08-30T15:01:32.049Z,99.83
2023-08-30T15:03:59.294Z,99.77
2023-08-30T15:06:26.941Z,98.93
2023-08-30T15:08:53.983Z,98.37
2023-08-30T15:11:21.162Z,99.36
2023-08-30T15:13:48.329Z,99.11
2023-08-30T15:16:15.486Z,98.04
2023-08-30T15:18:42.748Z,96.59
2023-08-30T15:21:09.954Z,95.24
2023-08-30T15:23:38.786Z,93.78
2023-08-30T15:26:06.923Z,93.86
2023-08-30T15:28:34.741Z,94.69
2023-08-30T15:31:02.126Z,95.42
2023-08-30T15:33:29.381Z,94.80
2023-08-30T15:36:01.925Z,93.81
2023-08-30T15:38:31.432Z,93.46
2023-08-30T15:40:58.576Z,92.84
2023-08-30T15:43:26.303Z,90.74
2023-08-30T15:45:53.519Z,92.44
2023-08-30T15:48:20.673Z,93.42
2023-08-30T15:50:47.894Z,93.32
2023-08-30T15:53:14.974Z,93.99
2023-08-30T15:55:42.400Z,94.54
2023-08-30T15:58:09.684Z,94.50
2023-08-30T16:00:41.874Z,95.18
2023-08-30T16:03:12.181Z,95.83
2023-08-30T16:05:39.467Z,95.30
2023-08-30T16:08:06.747Z,95.89
2023-08-30T16:10:34.357Z,96.81
2023-08-30T16:13:01.756Z,97.00
2023-08-30T16:15:29.080Z,96.81
2023-08-30T16:17:57.473Z,97.06
2023-08-30T16:20:25.359Z,96.56
2023-08-30T16:22:53.746Z,95.50
2023-08-30T16:25:20.967Z,94.48
2023-08-30T16:27:48.402Z,95.00
2023-08-30T16:30:16.826Z,95.83
2023-08-30T16:32:44.187Z,96.05
2023-08-30T16:35:12.854Z,95.96
2023-08-30T16:37:40.032Z,95.83
2023-08-30T16:40:08.048Z,94.32
2023-08-30T16:42:35.407Z,93.53
2023-08-30T16:45:02.926Z,92.39
2023-08-30T16:47:35.569Z,92.84
2023-08-30T16:50:08.266Z,92.65
2023-08-30T16:52:37.081Z,92.53
2023-08-30T16:55:05.105Z,92.60
2023-08-30T16:57:32.224Z,93.34
2023-08-30T16:59:59.887Z,94.18
2023-08-30T17:02:27.474Z,93.05
2023-08-30T23:20:25.979Z,99.07
2023-08-30T23:22:53.501Z,99.01
2023-08-30T23:25:20.779Z,99.32
2023-08-30T23:27:48.027Z,99.14
2023-08-30T23:30:15.354Z,99.46
2023-08-30T23:32:42.430Z,99.18
2023-08-30T23:35:09.917Z,98.79
2023-08-30T23:37:36.946Z,98.53
2023-08-30T23:40:10.719Z,98.59
2023-08-30T23:42:38.696Z,98.56
2023-08-30T23:45:06.929Z,98.18
2023-08-30T23:47:34.160Z,98.97
2023-08-30T23:50:01.352Z,98.47
2023-08-30T23:52:29.346Z,98.88
2023-08-30T23:54:57.195Z,98.84
2023-08-30T23:57:24.675Z,99.48
2023-08-30T23:59:51.741Z,99.64
